Time;durP1;ratioP1;P1;durP2;ratioP2;P2;SDS_P1;SDS_P2;PMS_P1;PMS_P2;Temp;Humidity;BMP_temperature;BMP_pressure;BME280_temperature;BME280_humidity;BME280_pressure;Samples;Min_cycle;Max_cycle;Signal;HPM_P1;HPM_P2
2022/12/12 00:00:10;;;;;;;;;;;;;;;;;;4389508;32;20340;-74
2022/12/12 00:02:35;;;;;;;;;;;;;;;;;;4390930;32;19993;-77
2022/12/12 00:05:00;;;;;;;;;;;;;;;;;;4391833;32;19934;-75
2022/12/12 00:07:25;;;;;;;;;;;;;;;;;;4391896;32;19952;-75
2022/12/12 00:09:51;;;;;;;;;;;;;;;;;;4391369;32;19942;-74
2022/12/12 00:12:16;;;;;;;;;;;;;;;;;;4393961;32;19938;-73
2022/12/12 00:14:41;;;;;;;;;;;;;;;;;;4395514;32;19984;-74
2022/12/12 00:17:06;;;;;;;;;;;;;;;;;;4390293;32;19945;-73
2022/12/12 00:19:31;;;;;;;;;;;;;;;;;;4392082;32;19933;-74
2022/12/12 00:21:56;;;;;;;;;;;;;;;;;;4391092;32;19942;-73
2022/12/12 00:24:21;;;;;;;;;;;;;;;;;;4392134;32;19938;-75
2022/12/12 00:26:46;;;;;;;;;;;;;;;;;;4390801;32;19937;-75
2022/12/12 00:29:11;;;;;;;;;;;;;;;;;;4389055;32;19937;-75
2022/12/12 00:31:36;;;;;;;;;;;;;;;;;;4388607;32;19941;-75
2022/12/12 00:34:02;;;;;;;;;;;;;;;;;;4390611;32;20299;-74
2022/12/12 00:36:27;;;;;;;;;;;;;;;;;;4389903;32;19998;-75
2022/12/12 00:38:52;;;;;;;;;;;;;;;;;;4388934;32;19942;-74
2022/12/12 00:41:17;;;;;;;;;;;;;;;;;;4388768;32;19942;-75
2022/12/12 00:43:42;;;;;;;;;;;;;;;;;;4391691;32;19948;-75
2022/12/12 00:46:07;;;;;;;;;;;;;;;;;;4390223;32;19969;-75
2022/12/12 00:48:32;;;;;;;;;;;;;;;;;;4392012;32;20397;-75
2022/12/12 00:50:57;;;;;;;;;;;;;;;;;;4388310;32;20372;-75
2022/12/12 00:53:22;;;;;;;;;;;;;;;;;;4390096;32;19982;-75
2022/12/12 00:55:48;;;;;;;;;;;;;;;;;;4391777;32;19961;-75
2022/12/12 00:58:13;;;;;;;;;;;;;;;;;;4390096;32;19992;-76
2022/12/12 01:00:40;;;;;;;;;;;;;;;;;;4390071;32;19950;-75
2022/12/12 01:03:05;;;;;;;;;;;;;;;;;;4388883;32;19949;-74
2022/12/12 01:05:30;;;;;;;;;;;;;;;;;;4392533;32;19949;-75
2022/12/12 01:07:55;;;;;;;;;;;;;;;;;;4390221;32;19934;-75
2022/12/12 01:10:20;;;;;;;;;;;;;;;;;;4390787;32;19988;-74
2022/12/12 01:12:45;;;;;;;;;;;;;;;;;;4390731;32;19949;-75
2022/12/12 01:15:10;;;;;;;;;;;;;;;;;;4390867;32;19934;-75
2022/12/12 01:17:36;;;;;;;;;;;;;;;;;;4390820;32;20351;-75
2022/12/12 01:20:02;;;;;;;;;;;;;;;;;;4390416;32;19954;-74
2022/12/12 01:22:27;;;;;;;;;;;;;;;;;;4391742;32;19948;-75
2022/12/12 01:24:55;;;;;;;;;;;;;;;;;;4390334;32;19938;-75
2022/12/12 01:27:20;;;;;;;;;;;;;;;;;;4389949;32;19967;-75
2022/12/12 01:29:45;;;;;;;;;;;;;;;;;;4391247;32;19938;-75
2022/12/12 01:32:11;;;;;;;;;;;;;;;;;;4390444;32;19951;-75
2022/12/12 01:34:36;;;;;;;;;;;;;;;;;;4389179;32;20409;-75
2022/12/12 01:37:01;;;;;;;;;;;;;;;;;;4391022;32;19942;-75
2022/12/12 01:39:26;;;;;;;;;;;;;;;;;;4391724;32;19934;-75
2022/12/12 01:41:51;;;;;;;;;;;;;;;;;;4390822;32;19938;-74
2022/12/12 01:44:16;;;;;;;;;;;;;;;;;;4393844;32;19964;-76
2022/12/12 01:46:41;;;;;;;;;;;;;;;;;;4391659;32;19933;-75
2022/12/12 01:49:06;;;;;;;;;;;;;;;;;;4391422;32;20392;-76
2022/12/12 01:51:32;;;;;;;;;;;;;;;;;;4390340;32;20092;-75
2022/12/12 01:53:57;;;;;;;;;;;;;;;;;;4392843;32;19958;-75
2022/12/12 01:56:23;;;;;;;;;;;;;;;;;;4393499;32;19980;-75
2022/12/12 01:58:48;;;;;;;;;;;;;;;;;;4393884;32;19999;-75
2022/12/12 02:01:13;;;;;;;;;;;;;;;;;;4394595;32;19987;-75
2022/12/12 02:03:38;;;;;;;;;;;;;;;;;;4392463;32;20016;-75
2022/12/12 02:06:03;;;;;;;;;;;;;;;;;;4393147;32;19973;-75
2022/12/12 02:08:28;;;;;;;;;;;;;;;;;;4392826;32;19934;-75
2022/12/12 02:10:53;;;;;;;;;;;;;;;;;;4392851;32;19977;-74
2022/12/12 02:13:18;;;;;;;;;;;;;;;;;;4391789;32;19941;-75
2022/12/12 02:15:43;;;;;;;;;;;;;;;;;;4392577;32;20260;-74
2022/12/12 02:18:08;;;;;;;;;;;;;;;;;;4393234;32;19944;-74
2022/12/12 02:20:34;;;;;;;;;;;;;;;;;;4392534;32;20300;-74
2022/12/12 02:22:59;;;;;;;;;;;;;;;;;;4392109;32;19956;-74
2022/12/12 02:25:24;;;;;;;;;;;;;;;;;;4392909;32;19946;-74
2022/12/12 02:27:49;;;;;;;;;;;;;;;;;;4392527;32;19938;-74
2022/12/12 02:30:14;;;;;;;;;;;;;;;;;;4392334;32;19971;-75
2022/12/12 02:32:39;;;;;;;;;;;;;;;;;;4390781;32;20043;-74
2022/12/12 02:35:04;;;;;;;;;;;;;;;;;;4392375;32;19933;-74
2022/12/12 02:37:29;;;;;;;;;;;;;;;;;;4392724;32;19972;-74
2022/12/12 02:39:54;;;;;;;;;;;;;;;;;;4391262;32;19950;-74
2022/12/12 02:42:19;;;;;;;;;;;;;;;;;;4394183;32;19954;-74
2022/12/12 02:44:45;;;;;;;;;;;;;;;;;;4393695;32;19972;-74
2022/12/12 02:47:10;;;;;;;;;;;;;;;;;;4392208;32;19934;-74
2022/12/12 02:49:35;;;;;;;;;;;;;;;;;;4391049;32;19987;-74
2022/12/12 02:52:00;;;;;;;;;;;;;;;;;;4392436;32;19945;-74
2022/12/12 02:54:25;;;;;;;;;;;;;;;;;;4392400;32;19930;-74
2022/12/12 02:56:50;;;;;;;;;;;;;;;;;;4392654;32;19934;-74
2022/12/12 02:59:15;;;;;;;;;;;;;;;;;;4393186;32;19933;-75
2022/12/12 03:01:41;;;;;;;;;;;;;;;;;;4394438;32;20299;-74
2022/12/12 03:09:34;;;;;;;;;;;;;;;;;;4394633;32;19945;-75
2022/12/12 03:11:59;;;;;;;;;;;;;;;;;;4393211;32;19989;-73
2022/12/12 03:14:24;;;;;;;;;;;;;;;;;;4399715;32;19944;-75
2022/12/12 03:16:49;;;;;;;;;;;;;;;;;;4398330;32;19964;-74
2022/12/12 03:19:14;;;;;;;;;;;;;;;;;;4396963;32;19933;-74
2022/12/12 03:21:39;;;;;;;;;;;;;;;;;;4391913;32;19941;-75
2022/12/12 03:24:04;;;;;;;;;;;;;;;;;;4393566;32;19942;-73
2022/12/12 03:26:29;;;;;;;;;;;;;;;;;;4396306;32;19957;-74
2022/12/12 03:28:55;;;;;;;;;;;;;;;;;;4396159;32;19964;-75
2022/12/12 03:31:20;;;;;;;;;;;;;;;;;;4396504;32;19949;-73
2022/12/12 03:33:45;;;;;;;;;;;;;;;;;;4394146;32;19974;-75
2022/12/12 03:36:10;;;;;;;;;;;;;;;;;;4392772;32;19938;-74
2022/12/12 03:38:35;;;;;;;;;;;;;;;;;;4391486;32;19945;-75
2022/12/12 03:41:00;;;;;;;;;;;;;;;;;;4392782;32;20017;-74
2022/12/12 03:43:25;;;;;;;;;;;;;;;;;;4391014;32;19942;-74
2022/12/12 03:45:50;;;;;;;;;;;;;;;;;;4391845;32;19967;-75
2022/12/12 03:48:15;;;;;;;;;;;;;;;;;;4391717;32;19979;-74
2022/12/12 03:50:41;;;;;;;;;;;;;;;;;;4389996;32;19934;-75
2022/12/12 03:53:06;;;;;;;;;;;;;;;;;;4391092;32;19938;-75
2022/12/12 03:55:31;;;;;;;;;;;;;;;;;;4391784;32;19933;-75
2022/12/12 03:57:56;;;;;;;;;;;;;;;;;;4391806;32;19964;-75
2022/12/12 04:00:21;;;;;;;;;;;;;;;;;;4390261;32;19948;-75
2022/12/12 04:02:50;;;;;;;;;;;;;;;;;;4391467;32;19981;-75
2022/12/12 04:05:15;;;;;;;;;;;;;;;;;;4392679;32;19946;-75
2022/12/12 04:07:40;;;;;;;;;;;;;;;;;;4391574;32;19948;-75
2022/12/12 04:12:59;;;;;;;;;;;;;;;;;;4391285;32;19995;-75
2022/12/12 04:15:24;;;;;;;;;;;;;;;;;;4390695;32;19971;-74
2022/12/12 04:17:49;;;;;;;;;;;;;;;;;;4391531;32;19997;-74
2022/12/12 04:23:16;;;;;;;;;;;;;;;;;;4390726;32;19964;-74
2022/12/12 04:26:37;;;;;;;;;;;;;;;;;;4389876;32;19942;-75
2022/12/12 04:28:26;;;;;;;;;;;;;;;;;;4390363;32;19945;-75
2022/12/12 04:30:51;;;;;;;;;;;;;;;;;;4390856;32;19937;-75
2022/12/12 04:33:16;;;;;;;;;;;;;;;;;;4390988;32;19986;-75
2022/12/12 04:35:42;;;;;;;;;;;;;;;;;;4391143;32;19969;-75
2022/12/12 04:38:07;;;;;;;;;;;;;;;;;;4390807;32;20298;-75
2022/12/12 04:40:32;;;;;;;;;;;;;;;;;;4392664;32;19990;-75
2022/12/12 04:42:57;;;;;;;;;;;;;;;;;;4392762;32;20301;-75
2022/12/12 04:45:22;;;;;;;;;;;;;;;;;;4392991;32;19991;-74
2022/12/12 04:47:47;;;;;;;;;;;;;;;;;;4394516;32;20351;-75
2022/12/12 04:50:12;;;;;;;;;;;;;;;;;;4391583;32;19938;-74
2022/12/12 04:52:37;;;;;;;;;;;;;;;;;;4390926;32;19953;-75
2022/12/12 04:55:03;;;;;;;;;;;;;;;;;;4392488;32;19959;-75
2022/12/12 04:57:28;;;;;;;;;;;;;;;;;;4390993;32;19933;-74
2022/12/12 04:59:53;;;;;;;;;;;;;;;;;;4390859;32;20355;-74
2022/12/12 05:02:18;;;;;;;;;;;;;;;;;;4390329;32;19942;-74
2022/12/12 05:04:43;;;;;;;;;;;;;;;;;;4390413;32;19984;-74
2022/12/12 05:07:08;;;;;;;;;;;;;;;;;;4390392;32;19957;-74
2022/12/12 05:09:33;;;;;;;;;;;;;;;;;;4391380;32;19977;-74
2022/12/12 05:11:58;;;;;;;;;;;;;;;;;;4389332;32;19938;-74
2022/12/12 05:14:23;;;;;;;;;;;;;;;;;;4391839;32;19977;-75
2022/12/12 05:16:49;;;;;;;;;;;;;;;;;;4393254;32;19944;-74
2022/12/12 05:19:14;;;;;;;;;;;;;;;;;;4392157;32;19934;-74
2022/12/12 05:21:39;;;;;;;;;;;;;;;;;;4391283;32;19938;-75
2022/12/12 05:24:04;;;;;;;;;;;;;;;;;;4391102;32;19941;-74
2022/12/12 05:26:29;;;;;;;;;;;;;;;;;;4392544;32;20382;-74
2022/12/12 05:28:54;;;;;;;;;;;;;;;;;;4393797;32;20291;-75
2022/12/12 05:31:19;;;;;;;;;;;;;;;;;;4393127;32;19934;-75
2022/12/12 05:33:44;;;;;;;;;;;;;;;;;;4394219;32;19975;-75
2022/12/12 05:36:09;;;;;;;;;;;;;;;;;;4393252;32;19956;-74
2022/12/12 05:38:34;;;;;;;;;;;;;;;;;;4393896;32;19944;-74
2022/12/12 05:41:00;;;;;;;;;;;;;;;;;;4394327;32;19934;-74
2022/12/12 05:43:25;;;;;;;;;;;;;;;;;;4394222;32;19938;-75
2022/12/12 05:45:50;;;;;;;;;;;;;;;;;;4394010;32;19952;-75
2022/12/12 05:48:15;;;;;;;;;;;;;;;;;;4394273;32;19946;-75
2022/12/12 05:50:40;;;;;;;;;;;;;;;;;;4394491;32;19977;-75
2022/12/12 05:53:05;;;;;;;;;;;;;;;;;;4392886;32;19937;-75
2022/12/12 05:55:31;;;;;;;;;;;;;;;;;;4393933;32;19939;-75
2022/12/12 05:57:56;;;;;;;;;;;;;;;;;;4391365;32;19938;-75
2022/12/12 06:00:21;;;;;;;;;;;;;;;;;;4393051;32;19934;-75
2022/12/12 06:02:46;;;;;;;;;;;;;;;;;;4391929;32;19968;-75
2022/12/12 06:05:11;;;;;;;;;;;;;;;;;;4392822;32;20005;-75
2022/12/12 06:07:36;;;;;;;;;;;;;;;;;;4393952;32;19944;-74
2022/12/12 06:10:01;;;;;;;;;;;;;;;;;;4392146;32;19976;-75
2022/12/12 06:12:26;;;;;;;;;;;;;;;;;;4404302;32;20305;-74
2022/12/12 06:14:51;;;;;;;;;;;;;;;;;;4393076;32;20315;-75
2022/12/12 06:17:17;;;;;;;;;;;;;;;;;;4394070;32;19976;-75
2022/12/12 06:19:42;;;;;;;;;;;;;;;;;;4399464;32;19933;-75
2022/12/12 06:22:07;;;;;;;;;;;;;;;;;;4412621;32;19976;-74
2022/12/12 06:24:32;;;;;;;;;;;;;;;;;;4392592;32;19985;-73
2022/12/12 06:26:57;;;;;;;;;;;;;;;;;;4393287;32;19934;-73
2022/12/12 06:29:22;;;;;;;;;;;;;;;;;;4392329;32;20282;-74
2022/12/12 06:31:47;;;;;;;;;;;;;;;;;;4391853;32;20316;-73
2022/12/12 06:34:12;;;;;;;;;;;;;;;;;;4392187;32;19937;-73
2022/12/12 06:36:38;;;;;;;;;;;;;;;;;;4391530;32;19948;-73
2022/12/12 06:39:03;;;;;;;;;;;;;;;;;;4391855;32;19984;-74
2022/12/12 06:41:28;;;;;;;;;;;;;;;;;;4390707;32;19942;-74
2022/12/12 06:43:53;;;;;;;;;;;;;;;;;;4380477;32;20541;-74
2022/12/12 06:46:18;;;;;;;;;;;;;;;;;;4376784;32;19956;-74
2022/12/12 06:48:43;;;;;;;;;;;;;;;;;;4377112;32;19972;-74
2022/12/12 06:51:08;;;;;;;;;;;;;;;;;;4389009;32;19949;-74
2022/12/12 06:53:34;;;;;;;;;;;;;;;;;;4377039;32;19955;-74
2022/12/12 06:55:59;;;;;;;;;;;;;;;;;;4389886;32;19951;-73
2022/12/12 06:58:24;;;;;;;;;;;;;;;;;;4376857;32;20297;-74
2022/12/12 07:00:49;;;;;;;;;;;;;;;;;;4377984;32;20330;-74
2022/12/12 07:03:14;;;;;;;;;;;;;;;;;;4376195;32;19953;-74
2022/12/12 07:05:39;;;;;;;;;;;;;;;;;;4395209;32;19951;-74
2022/12/12 07:08:04;;;;;;;;;;;;;;;;;;4390936;32;19945;-75
2022/12/12 07:10:29;;;;;;;;;;;;;;;;;;4391368;32;19999;-75
2022/12/12 07:12:54;;;;;;;;;;;;;;;;;;4390687;32;19937;-74
2022/12/12 07:15:20;;;;;;;;;;;;;;;;;;4390388;32;20328;-74
2022/12/12 07:17:45;;;;;;;;;;;;;;;;;;4392341;32;20016;-75
2022/12/12 07:20:10;;;;;;;;;;;;;;;;;;4390366;32;19938;-74
2022/12/12 07:22:35;;;;;;;;;;;;;;;;;;4392577;32;19946;-73
2022/12/12 07:25:00;;;;;;;;;;;;;;;;;;4392603;32;20069;-74
2022/12/12 07:27:25;;;;;;;;;;;;;;;;;;4391422;32;19945;-74
2022/12/12 07:29:50;;;;;;;;;;;;;;;;;;4389501;32;19937;-74
2022/12/12 07:32:15;;;;;;;;;;;;;;;;;;4391140;32;20299;-74
2022/12/12 07:34:41;;;;;;;;;;;;;;;;;;4391058;32;19942;-74
2022/12/12 07:37:06;;;;;;;;;;;;;;;;;;4391263;32;19976;-75
2022/12/12 07:39:31;;;;;;;;;;;;;;;;;;4392902;32;19934;-75
2022/12/12 07:41:56;;;;;;;;;;;;;;;;;;4392486;32;19944;-74
2022/12/12 07:44:21;;;;;;;;;;;;;;;;;;4391358;32;19948;-74
2022/12/12 07:46:46;;;;;;;;;;;;;;;;;;4391705;32;19949;-74
2022/12/12 07:49:11;;;;;;;;;;;;;;;;;;4391203;32;20361;-75
2022/12/12 07:51:37;;;;;;;;;;;;;;;;;;4394415;32;19971;-73
2022/12/12 07:54:02;;;;;;;;;;;;;;;;;;4398090;32;19952;-74
2022/12/12 07:56:28;;;;;;;;;;;;;;;;;;4392857;32;19934;-74
2022/12/12 07:58:54;;;;;;;;;;;;;;;;;;4391869;32;19985;-74
2022/12/12 08:01:19;;;;;;;;;;;;;;;;;;4394555;32;19952;-74
2022/12/12 08:03:44;;;;;;;;;;;;;;;;;;4396691;32;19945;-74
2022/12/12 08:06:09;;;;;;;;;;;;;;;;;;4390839;32;19934;-74
2022/12/12 08:08:35;;;;;;;;;;;;;;;;;;4391651;32;20314;-75
2022/12/12 08:11:00;;;;;;;;;;;;;;;;;;4390492;32;19938;-75
2022/12/12 08:13:25;;;;;;;;;;;;;;;;;;4391586;32;19952;-73
2022/12/12 08:15:50;;;;;;;;;;;;;;;;;;4390511;32;19934;-74
2022/12/12 08:18:15;;;;;;;;;;;;;;;;;;4390489;32;19993;-75
2022/12/12 08:20:40;;;;;;;;;;;;;;;;;;4391678;32;19939;-74
2022/12/12 08:23:05;;;;;;;;;;;;;;;;;;4390159;32;20263;-75
2022/12/12 08:25:32;;;;;;;;;;;;;;;;;;4390747;32;20336;-75
2022/12/12 08:27:57;;;;;;;;;;;;;;;;;;4390560;32;19933;-75
2022/12/12 08:30:22;;;;;;;;;;;;;;;;;;4389501;32;19985;-75
2022/12/12 08:32:47;;;;;;;;;;;;;;;;;;4391620;32;20003;-75
2022/12/12 08:35:12;;;;;;;;;;;;;;;;;;4390871;32;19952;-75
2022/12/12 08:37:37;;;;;;;;;;;;;;;;;;4391122;32;19993;-75
2022/12/12 08:40:02;;;;;;;;;;;;;;;;;;4391746;32;19949;-73
2022/12/12 08:42:27;;;;;;;;;;;;;;;;;;4390885;32;19938;-73
2022/12/12 08:44:53;;;;;;;;;;;;;;;;;;4389997;32;19933;-74
2022/12/12 08:47:18;;;;;;;;;;;;;;;;;;4390498;32;19934;-74
2022/12/12 08:49:43;;;;;;;;;;;;;;;;;;4389567;32;20098;-74
2022/12/12 08:52:09;;;;;;;;;;;;;;;;;;4388897;32;20252;-75
2022/12/12 08:54:34;;;;;;;;;;;;;;;;;;4390212;32;19979;-74
2022/12/12 08:56:59;;;;;;;;;;;;;;;;;;4390473;32;19942;-74
2022/12/12 08:59:24;;;;;;;;;;;;;;;;;;4390239;32;20256;-73
2022/12/12 09:01:49;;;;;;;;;;;;;;;;;;4391869;32;19938;-74
2022/12/12 09:04:14;;;;;;;;;;;;;;;;;;4393416;32;19934;-74
2022/12/12 09:06:39;;;;;;;;;;;;;;;;;;4394613;32;19971;-74
2022/12/12 09:09:04;;;;;;;;;;;;;;;;;;4393005;32;19938;-75
2022/12/12 09:11:30;;;;;;;;;;;;;;;;;;4393314;32;20307;-75
2022/12/12 09:13:55;;;;;;;;;;;;;;;;;;4393024;32;20323;-74
2022/12/12 09:16:22;;;;;;;;;;;;;;;;;;4393862;32;20334;-73
2022/12/12 09:18:47;;;;;;;;;;;;;;;;;;4394090;32;19973;-74
2022/12/12 09:21:12;;;;;;;;;;;;;;;;;;4394969;32;20327;-74
2022/12/12 09:23:37;;;;;;;;;;;;;;;;;;4393602;32;20320;-75
2022/12/12 09:26:02;;;;;;;;;;;;;;;;;;4398973;32;19938;-74
2022/12/12 09:28:27;;;;;;;;;;;;;;;;;;4395446;32;19942;-73
2022/12/12 09:30:52;;;;;;;;;;;;;;;;;;4393517;32;19934;-74
2022/12/12 09:33:18;;;;;;;;;;;;;;;;;;4393644;32;19952;-73
2022/12/12 09:35:43;;;;;;;;;;;;;;;;;;4392806;32;19969;-74
2022/12/12 09:38:08;;;;;;;;;;;;;;;;;;4393256;32;19996;-74
2022/12/12 09:40:33;;;;;;;;;;;;;;;;;;4393122;32;19934;-74
2022/12/12 09:42:58;;;;;;;;;;;;;;;;;;4393309;32;19950;-74
2022/12/12 09:45:24;;;;;;;;;;;;;;;;;;4392627;32;19986;-75
2022/12/12 09:47:49;;;;;;;;;;;;;;;;;;4393505;32;20020;-75
2022/12/12 09:50:14;;;;;;;;;;;;;;;;;;4389723;32;20359;-74
2022/12/12 09:52:40;;;;;;;;;;;;;;;;;;4386285;32;19946;-75
2022/12/12 09:55:05;;;;;;;;;;;;;;;;;;4393576;32;19937;-74
2022/12/12 09:57:30;;;;;;;;;;;;;;;;;;4392467;32;20387;-75
2022/12/12 09:59:55;;;;;;;;;;;;;;;;;;4392994;32;19942;-76
2022/12/12 10:02:20;;;;;;;;;;;;;;;;;;4393059;32;19934;-75
2022/12/12 10:04:45;;;;;;;;;;;;;;;;;;4392919;32;19934;-75
2022/12/12 10:07:10;;;;;;;;;;;;;;;;;;4392961;32;19934;-75
2022/12/12 10:09:36;;;;;;;;;;;;;;;;;;4392889;32;19942;-75
2022/12/12 10:12:01;;;;;;;;;;;;;;;;;;4391281;32;20294;-77
2022/12/12 10:14:26;;;;;;;;;;;;;;;;;;4392779;32;20384;-76
2022/12/12 10:16:51;;;;;;;;;;;;;;;;;;4396836;32;19958;-76
2022/12/12 10:19:16;;;;;;;;;;;;;;;;;;4394804;32;19941;-76
2022/12/12 10:21:41;;;;;;;;;;;;;;;;;;4393824;32;19934;-75
2022/12/12 10:24:06;;;;;;;;;;;;;;;;;;4393382;32;19949;-75
2022/12/12 10:26:31;;;;;;;;;;;;;;;;;;4393199;32;19972;-77
2022/12/12 10:28:56;;;;;;;;;;;;;;;;;;4394016;32;19937;-75
2022/12/12 10:31:22;;;;;;;;;;;;;;;;;;4392326;32;19938;-76
2022/12/12 10:33:47;;;;;;;;;;;;;;;;;;4390700;32;20001;-77
2022/12/12 10:36:12;;;;;;;;;;;;;;;;;;4392118;32;19975;-75
2022/12/12 10:38:37;;;;;;;;;;;;;;;;;;4392297;32;19972;-74
2022/12/12 10:41:02;;;;;;;;;;;;;;;;;;4392037;32;19933;-75
2022/12/12 10:43:27;;;;;;;;;;;;;;;;;;4389728;32;20376;-75
2022/12/12 10:45:52;;;;;;;;;;;;;;;;;;4389133;32;19934;-75
2022/12/12 10:48:17;;;;;;;;;;;;;;;;;;4377242;32;20308;-75
2022/12/12 10:50:42;;;;;;;;;;;;;;;;;;4377811;32;19973;-75
2022/12/12 10:53:07;;;;;;;;;;;;;;;;;;4377752;32;19953;-75
2022/12/12 10:55:33;;;;;;;;;;;;;;;;;;4377286;32;19938;-76
2022/12/12 10:57:58;;;;;;;;;;;;;;;;;;4379034;32;20308;-76
2022/12/12 11:00:24;;;;;;;;;;;;;;;;;;4381721;32;19973;-75
2022/12/12 11:02:49;;;;;;;;;;;;;;;;;;4379631;32;20300;-75
2022/12/12 11:05:14;;;;;;;;;;;;;;;;;;4383362;32;19980;-75
2022/12/12 11:07:39;;;;;;;;;;;;;;;;;;4392208;32;20372;-76
2022/12/12 11:10:04;;;;;;;;;;;;;;;;;;4393131;32;19952;-76
2022/12/12 11:12:29;;;;;;;;;;;;;;;;;;4403910;32;19938;-76
2022/12/12 11:14:54;;;;;;;;;;;;;;;;;;4379674;32;19938;-76
2022/12/12 11:17:20;;;;;;;;;;;;;;;;;;4388131;32;19938;-76
2022/12/12 11:19:45;;;;;;;;;;;;;;;;;;4377598;32;20311;-75
2022/12/12 11:22:10;;;;;;;;;;;;;;;;;;4388523;32;19938;-77
2022/12/12 11:24:35;;;;;;;;;;;;;;;;;;4388196;32;20302;-78
2022/12/12 11:27:00;;;;;;;;;;;;;;;;;;4377371;32;19986;-76
2022/12/12 11:29:26;;;;;;;;;;;;;;;;;;4376928;32;20324;-74
2022/12/12 11:31:51;;;;;;;;;;;;;;;;;;4387139;32;19977;-75
2022/12/12 11:36:05;;;;;;;31.05;17.65;;;;;;;;;;4481143;31;20062;-75
2022/12/12 11:38:33;;;;;;;36.60;19.70;;;;;;;;;;4465870;32;20055;-75
2022/12/12 11:40:59;;;;;;;36.75;20.83;;;;;;;;;;4470626;32;20050;-73
2022/12/12 11:43:24;;;;;;;;;;;;;;;;;;4467861;32;20026;-75
2022/12/12 11:46:00;;;;;;;33.70;18.90;;;;;;;;;;4460647;32;20340;-73
2022/12/12 11:48:33;;;;;;;32.15;18.52;;;;;;;;;;4449915;32;20059;-74
2022/12/12 11:50:58;;;;;;;33.78;20.12;;;;;;;;;;4458745;32;20097;-73
2022/12/12 11:53:24;;;;;;;;;;;;;;;;;;4463429;32;20071;-74
2022/12/12 11:55:53;;;;;;;32.35;17.42;;;;;;;;;;4463493;32;20299;-74
2022/12/12 11:58:24;;;;;;;42.75;24.45;;;;;;;;;;4463033;32;20056;-74
2022/12/12 12:01:02;;;;;;;44.80;26.83;;;;;;;;;;4459874;32;20033;-74
2022/12/12 12:03:41;;;;;;;34.88;21.55;;;;;;;;;;4460390;32;20033;-73
2022/12/12 12:06:29;;;;;;;38.75;21.98;;;;;;;;;;4461606;32;20397;-73
2022/12/12 12:09:00;;;;;;;34.38;21.50;;;;;;;;;;4432673;32;20041;-73
2022/12/12 12:11:35;;;;;;;32.50;20.55;;;;;;;;;;4462805;32;20075;-73
2022/12/12 12:14:07;;;;;;;33.42;19.20;;;;;;;;;;4447617;32;20350;-73
2022/12/12 12:16:45;;;;;;;42.13;23.25;;;;;;;;;;4453160;32;20060;-74
2022/12/12 12:19:21;;;;;;;37.63;21.42;;;;;;;;;;4455365;32;20030;-73
2022/12/12 12:22:05;;;;;;;32.95;18.37;;;;;;;;;;4439891;32;20125;-74
2022/12/12 12:24:31;;;;;;;37.97;20.90;;;;;;;;;;4455104;32;20033;-73
2022/12/12 12:26:56;;;;;;;;;;;;;;;;;;4454933;32;20118;-72
2022/12/12 12:29:21;;;;;;;37.80;19.45;;;;;;;;;;4456237;32;19951;-73
2022/12/12 12:31:46;;;;;;;;;;;;;;;;;;4454592;32;20573;-72
2022/12/12 12:34:11;;;;;;;36.35;21.42;;;;;;;;;;4455850;32;19981;-73
2022/12/12 12:36:36;;;;;;;;;;;;;;;;;;4444247;32;20230;-73
2022/12/12 12:39:19;;;;;;;32.17;19.92;;;;;;;;;;4455381;32;20008;-73
2022/12/12 12:42:05;;;;;;;32.78;21.33;;;;;;;;;;4439863;32;20507;-74
2022/12/12 12:44:39;;;;;;;39.08;21.45;;;;;;;;;;4457762;32;20041;-73
2022/12/12 12:47:16;;;;;;;32.67;19.25;;;;;;;;;;4446180;32;20041;-73
2022/12/12 12:49:47;;;;;;;32.00;18.25;;;;;;;;;;4444307;32;20118;-74
2022/12/12 12:52:18;;;;;;;33.70;18.42;;;;;;;;;;4431677;32;20410;-73
2022/12/12 12:54:47;;;;;;;36.90;20.40;;;;;;;;;;4428484;32;20080;-74
2022/12/12 12:57:31;;;;;;;30.73;19.15;;;;;;;;;;4443743;32;20063;-75
2022/12/12 12:59:59;;;;;;;30.23;20.00;;;;;;;;;;4449231;32;20092;-75
2022/12/12 13:02:28;;;;;;;35.80;20.40;;;;;;;;;;4435685;32;20377;-76
2022/12/12 13:05:09;;;;;;;37.35;20.40;;;;;;;;;;4454382;32;20053;-75
2022/12/12 13:07:47;;;;;;;32.10;20.80;;;;;;;;;;4454195;32;20029;-74
2022/12/12 13:10:16;;;;;;;34.72;20.05;;;;;;;;;;4453713;32;20025;-74
2022/12/12 13:12:48;;;;;;;33.92;19.58;;;;;;;;;;4439843;32;20092;-74
2022/12/12 13:15:31;;;;;;;34.75;20.98;;;;;;;;;;4454229;32;20456;-73
2022/12/12 13:18:04;;;;;;;31.15;21.83;;;;;;;;;;4439442;32;20118;-73
2022/12/12 13:20:33;;;;;;;38.17;22.25;;;;;;;;;;4453393;32;20444;-73
2022/12/12 13:22:59;;;;;;;31.00;19.62;;;;;;;;;;4453615;32;20342;-73
2022/12/12 13:25:24;;;;;;;;;;;;;;;;;;4453428;32;20052;-74
2022/12/12 13:27:50;;;;;;;36.42;21.60;;;;;;;;;;4453289;32;19979;-74
2022/12/12 13:30:48;;;;;;;37.40;21.98;;;;;;;;;;4453881;32;20205;-73
2022/12/12 13:33:13;;;;;;;28.02;17.05;;;;;;;;;;4410961;32;20041;-75
2022/12/12 13:35:41;;;;;;;;;;;;;;;;;;4423638;32;20087;-73
2022/12/12 13:38:15;;;;;;;35.95;20.62;;;;;;;;;;4444565;32;20028;-75
2022/12/12 13:40:41;;;;;;;34.33;19.52;;;;;;;;;;4444870;32;20511;-73
2022/12/12 13:43:18;;;;;;;32.88;20.30;;;;;;;;;;4448544;32;20084;-74
2022/12/12 13:45:44;;;;;;;36.75;20.67;;;;;;;;;;4438468;32;20063;-74
2022/12/12 13:48:09;;;;;;;;;;;;;;;;;;4453246;32;20395;-74
2022/12/12 13:50:34;;;;;;;35.55;18.83;;;;;;;;;;4454211;32;20310;-74
2022/12/12 13:52:59;;;;;;;;;;;;;;;;;;4454107;32;20081;-73
2022/12/12 13:55:25;;;;;;;30.92;19.02;;;;;;;;;;4438933;32;19944;-73
2022/12/12 13:57:50;;;;;;;;;;;;;;;;;;4452830;32;20142;-73
2022/12/12 14:00:16;;;;;;;32.75;20.60;;;;;;;;;;4452177;32;20343;-73
2022/12/12 14:02:43;;;;;;;32.95;19.50;;;;;;;;;;4452917;32;20117;-74
2022/12/12 14:05:10;;;;;;;36.72;20.67;;;;;;;;;;4451576;32;20391;-74
2022/12/12 14:07:36;;;;;;;31.65;20.08;;;;;;;;;;4452439;32;20093;-74
2022/12/12 14:10:01;;;;;;;;;;;;;;;;;;4453403;32;20377;-74
2022/12/12 14:12:32;;;;;;;36.35;20.62;;;;;;;;;;4453319;32;19976;-74
2022/12/12 14:14:59;;;;;;;36.53;21.10;;;;;;;;;;4450300;32;20146;-74
2022/12/12 14:17:25;;;;;;;30.95;18.52;;;;;;;;;;4452187;32;20055;-72
2022/12/12 14:19:52;;;;;;;34.45;18.02;;;;;;;;;;4451450;32;20059;-72
2022/12/12 14:22:27;;;;;;;41.10;19.92;;;;;;;;;;4452962;32;20055;-72
2022/12/12 14:25:10;;;;;;;37.25;19.95;;;;;;;;;;4453778;32;20029;-72
2022/12/12 14:27:48;;;;;;;38.70;20.67;;;;;;;;;;4451564;32;20410;-74
2022/12/12 14:30:17;;;;;;;37.92;18.48;;;;;;;;;;4451757;32;20029;-73
2022/12/12 14:32:46;;;;;;;42.67;21.40;;;;;;;;;;4452635;32;20101;-73
2022/12/12 14:35:30;;;;;;;35.47;21.70;;;;;;;;;;4452146;32;20501;-73
2022/12/12 14:38:15;;;;;;;49.05;25.17;;;;;;;;;;4452962;32;20021;-72
2022/12/12 14:40:46;;;;;;;41.33;23.10;;;;;;;;;;4441330;32;20063;-73
2022/12/12 14:43:11;;;;;;;35.65;19.10;;;;;;;;;;4455717;32;20090;-73
2022/12/12 14:45:36;;;;;;;;;;;;;;;;;;4454935;32;20065;-72
2022/12/12 14:48:20;;;;;;;37.90;22.25;;;;;;;;;;4451467;32;20278;-75
2022/12/12 14:50:51;;;;;;;37.20;20.90;;;;;;;;;;4437178;32;20089;-73
2022/12/12 14:53:36;;;;;;;36.22;19.50;;;;;;;;;;4437641;32;20119;-73
2022/12/12 14:56:08;;;;;;;38.33;19.92;;;;;;;;;;4438231;32;20106;-73
2022/12/12 14:58:35;;;;;;;33.70;19.40;;;;;;;;;;4457902;32;20064;-72
2022/12/12 15:01:02;;;;;;;39.55;20.88;;;;;;;;;;4458019;32;20067;-72
2022/12/12 15:03:30;;;;;;;37.28;20.67;;;;;;;;;;4439092;32;20084;-73
2022/12/12 15:06:14;;;;;;;40.15;22.30;;;;;;;;;;4453319;32;20092;-73
2022/12/12 15:08:40;;;;;;;39.20;21.83;;;;;;;;;;4454959;32;20029;-73
2022/12/12 15:11:11;;;;;;;39.40;20.90;;;;;;;;;;4452856;32;20072;-73
2022/12/12 15:13:36;;;;;;;39.92;21.10;;;;;;;;;;4439387;32;20064;-73
2022/12/12 15:16:01;;;;;;;;;;;;;;;;;;4449449;32;20029;-73
2022/12/12 15:18:26;;;;;;;43.52;24.62;;;;;;;;;;4453718;32;20022;-73
2022/12/12 15:20:52;;;;;;;;;;;;;;;;;;4438497;32;20053;-73
2022/12/12 15:23:18;;;;;;;38.08;20.95;;;;;;;;;;4453211;32;19972;-72
2022/12/12 15:25:51;;;;;;;43.45;21.67;;;;;;;;;;4452663;32;20162;-73
2022/12/12 15:28:18;;;;;;;45.83;22.80;;;;;;;;;;4431876;32;20109;-73
2022/12/12 15:30:46;;;;;;;45.95;27.30;;;;;;;;;;4439989;32;20052;-73
2022/12/12 15:33:20;;;;;;;45.78;25.37;;;;;;;;;;4444396;32;20074;-72
2022/12/12 15:35:55;;;;;;;45.65;23.58;;;;;;;;;;4448983;32;20099;-73
2022/12/12 15:38:21;;;;;;;42.08;22.23;;;;;;;;;;4451678;32;20096;-73
2022/12/12 15:40:46;;;;;;;;;;;;;;;;;;4447403;32;20061;-72
2022/12/12 15:43:15;;;;;;;39.53;21.02;;;;;;;;;;4435822;32;19965;-73
2022/12/12 15:45:42;;;;;;;36.00;20.75;;;;;;;;;;4436765;32;20125;-73
2022/12/12 15:48:14;;;;;;;43.42;21.35;;;;;;;;;;4434599;32;20056;-74
2022/12/12 15:50:42;;;;;;;36.17;19.52;;;;;;;;;;4441097;32;20033;-74
2022/12/12 15:53:16;;;;;;;33.10;18.77;;;;;;;;;;4433577;32;20093;-73
2022/12/12 15:55:52;;;;;;;46.83;20.05;;;;;;;;;;4445268;32;20041;-73
2022/12/12 15:58:19;;;;;;;37.20;20.70;;;;;;;;;;4439605;32;20022;-73
2022/12/12 16:00:45;;;;;;;34.08;18.83;;;;;;;;;;4440025;32;20430;-74
2022/12/12 16:03:10;;;;;;;;;;;;;;;;;;4451250;32;20056;-71
2022/12/12 16:05:36;;;;;;;44.30;23.17;;;;;;;;;;4449786;32;19974;-72
2022/12/12 16:08:20;;;;;;;40.80;21.15;;;;;;;;;;4452495;32;20557;-72
2022/12/12 16:10:51;;;;;;;46.35;24.45;;;;;;;;;;4447484;32;20034;-74
2022/12/12 16:13:16;;;;;;;39.88;22.70;;;;;;;;;;4436344;32;20033;-72